Time;durP1;ratioP1;P1;durP2;ratioP2;P2;SDS_P1;SDS_P2;PMS_P1;PMS_P2;Temp;Humidity;BMP_temperature;BMP_pressure;BME280_temperature;BME280_humidity;BME280_pressure;Samples;Min_cycle;Max_cycle;Signal;HPM_P1;HPM_P2
2023/06/18 00:01:31;;;;;;;450.13;312.80;;;;;;;;;;4967399;28;20137;-63
2023/06/18 00:03:56;;;;;;;328.17;233.53;;;;;;;;;;4980195;28;20034;-63
2023/06/18 00:06:23;;;;;;;445.37;317.27;;;;;;;;;;4979016;28;20049;-67
2023/06/18 00:08:48;;;;;;;447.30;326.03;;;;;;;;;;4978261;28;20429;-65
2023/06/18 00:11:14;;;;;;;441.00;303.87;;;;;;;;;;4980254;28;20381;-63
2023/06/18 00:13:40;;;;;;;336.93;269.67;;;;;;;;;;4981561;28;20040;-65
2023/06/18 00:16:05;;;;;;;450.23;332.73;;;;;;;;;;4977958;28;20034;-64
2023/06/18 00:18:32;;;;;;;443.87;308.17;;;;;;;;;;4979539;28;20050;-64
2023/06/18 00:20:59;;;;;;;445.27;315.57;;;;;;;;;;4980055;28;20577;-64
2023/06/18 00:23:24;;;;;;;442.03;310.50;;;;;;;;;;4981212;28;20288;-64
2023/06/18 00:25:50;;;;;;;443.07;311.67;;;;;;;;;;4981733;28;20277;-64
2023/06/18 00:28:15;;;;;;;444.33;308.57;;;;;;;;;;4972179;28;20033;-64
2023/06/18 00:30:40;;;;;;;442.07;308.00;;;;;;;;;;4981666;28;20498;-64
2023/06/18 00:33:06;;;;;;;447.53;318.23;;;;;;;;;;4980820;28;20089;-64
2023/06/18 00:35:32;;;;;;;442.97;309.50;;;;;;;;;;4980010;28;20434;-64
2023/06/18 00:37:59;;;;;;;445.23;321.03;;;;;;;;;;4970343;28;20042;-64
2023/06/18 00:40:24;;;;;;;334.40;239.40;;;;;;;;;;4981578;28;20351;-64
2023/06/18 00:42:52;;;;;;;445.77;318.47;;;;;;;;;;4980203;28;20756;-64
2023/06/18 00:45:17;;;;;;;448.50;323.10;;;;;;;;;;4970543;28;20282;-64
2023/06/18 00:47:44;;;;;;;443.80;315.90;;;;;;;;;;4987050;28;20796;-64
2023/06/18 00:50:14;;;;;;;331.27;233.57;;;;;;;;;;4970721;28;20038;-64
2023/06/18 00:52:44;;;;;;;335.20;253.40;;;;;;;;;;4980813;28;20318;-63
2023/06/18 00:55:10;;;;;;;334.40;236.03;;;;;;;;;;4979285;28;20440;-64
2023/06/18 00:57:35;;;;;;;444.60;304.93;;;;;;;;;;4982344;28;20705;-64
2023/06/18 01:00:04;;;;;;;444.40;312.40;;;;;;;;;;4981375;28;20880;-64
2023/06/18 01:02:30;;;;;;;328.90;229.80;;;;;;;;;;4980748;28;20413;-64
2023/06/18 01:04:57;;;;;;;444.83;309.10;;;;;;;;;;4982602;28;20278;-64
2023/06/18 01:07:23;;;;;;;448.27;317.67;;;;;;;;;;4962725;28;20297;-64
2023/06/18 01:09:54;;;;;;;444.53;304.57;;;;;;;;;;4980984;28;20281;-63
2023/06/18 01:12:27;;;;;;;445.03;306.87;;;;;;;;;;4978940;28;20320;-64
2023/06/18 01:14:56;;;;;;;338.57;245.43;;;;;;;;;;4980965;28;20277;-63
2023/06/18 01:17:22;;;;;;;444.87;306.60;;;;;;;;;;4980869;28;20416;-64
2023/06/18 01:19:51;;;;;;;334.00;229.83;;;;;;;;;;4980399;28;20289;-63
2023/06/18 01:22:26;;;;;;;451.43;317.53;;;;;;;;;;5011666;28;20285;-64
2023/06/18 01:24:54;;;;;;;337.48;236.07;;;;;;;;;;4980191;28;20330;-63
2023/06/18 01:27:23;;;;;;;444.07;298.23;;;;;;;;;;4969743;28;20041;-63
2023/06/18 01:29:53;;;;;;;445.23;301.57;;;;;;;;;;4978976;28;20331;-66
2023/06/18 01:32:19;;;;;;;333.37;234.07;;;;;;;;;;4981334;28;20309;-65
2023/06/18 01:34:45;;;;;;;332.37;231.80;;;;;;;;;;4980524;28;20937;-63
2023/06/18 01:37:14;;;;;;;333.83;238.20;;;;;;;;;;4981592;28;20038;-64
2023/06/18 01:39:51;;;;;;;447.60;308.87;;;;;;;;;;4982552;28;20306;-63
2023/06/18 01:42:18;;;;;;;444.30;305.30;;;;;;;;;;4979217;28;20289;-68
2023/06/18 01:44:45;;;;;;;447.03;304.57;;;;;;;;;;4981685;28;20852;-63
2023/06/18 01:47:13;;;;;;;444.50;299.83;;;;;;;;;;4981302;28;20290;-65
2023/06/18 01:49:40;;;;;;;444.63;302.23;;;;;;;;;;4982924;28;20365;-64
2023/06/18 01:52:07;;;;;;;447.17;309.27;;;;;;;;;;4989017;28;20659;-63
2023/06/18 01:54:33;;;;;;;446.03;308.17;;;;;;;;;;4981769;28;20293;-63
2023/06/18 01:57:00;;;;;;;449.57;320.47;;;;;;;;;;4981738;28;20289;-64
2023/06/18 01:59:25;;;;;;;448.53;311.67;;;;;;;;;;4980583;28;20061;-64
2023/06/18 02:01:51;;;;;;;447.37;314.23;;;;;;;;;;4971404;28;20664;-64
2023/06/18 02:04:16;;;;;;;331.70;221.97;;;;;;;;;;4979366;28;20257;-64
2023/06/18 02:06:43;;;;;;;330.50;231.90;;;;;;;;;;4980440;28;20062;-63
2023/06/18 02:09:08;;;;;;;447.27;308.37;;;;;;;;;;4980377;28;20040;-65
2023/06/18 02:11:34;;;;;;;329.90;222.70;;;;;;;;;;4980036;28;20739;-67
2023/06/18 02:14:00;;;;;;;444.97;298.40;;;;;;;;;;4980131;28;20277;-68
2023/06/18 02:16:25;;;;;;;443.67;297.43;;;;;;;;;;4978121;28;20122;-68
2023/06/18 02:18:51;;;;;;;445.83;300.87;;;;;;;;;;4982626;28;20041;-68
2023/06/18 02:21:16;;;;;;;445.83;303.83;;;;;;;;;;4982725;28;20056;-68
2023/06/18 02:23:42;;;;;;;449.77;302.33;;;;;;;;;;4979652;28;20053;-68
2023/06/18 02:26:08;;;;;;;329.80;221.73;;;;;;;;;;4983403;28;20061;-70
2023/06/18 02:28:34;;;;;;;448.20;304.70;;;;;;;;;;4983807;28;20031;-67
2023/06/18 02:30:59;;;;;;;442.33;292.60;;;;;;;;;;4984684;28;20321;-67
2023/06/18 02:33:25;;;;;;;328.03;216.73;;;;;;;;;;4989580;28;20124;-67
2023/06/18 02:35:50;;;;;;;444.63;286.20;;;;;;;;;;4983334;28;20034;-67
2023/06/18 02:38:16;;;;;;;447.00;294.40;;;;;;;;;;4983552;28;20169;-67
2023/06/18 02:40:41;;;;;;;442.00;284.77;;;;;;;;;;4983949;28;20056;-67
2023/06/18 02:43:08;;;;;;;444.37;292.67;;;;;;;;;;4981664;28;20617;-67
2023/06/18 02:45:34;;;;;;;442.20;281.20;;;;;;;;;;4989779;28;20463;-67
2023/06/18 02:48:00;;;;;;;336.20;239.33;;;;;;;;;;4978452;28;20270;-68
2023/06/18 02:50:25;;;;;;;444.67;290.77;;;;;;;;;;4990205;28;20037;-67
2023/06/18 02:52:51;;;;;;;444.40;286.23;;;;;;;;;;4982474;28;20157;-67
2023/06/18 02:55:17;;;;;;;327.70;215.30;;;;;;;;;;4983879;28;20038;-67
2023/06/18 02:57:42;;;;;;;444.60;296.60;;;;;;;;;;4980613;28;20080;-66
2023/06/18 03:00:10;;;;;;;442.57;284.90;;;;;;;;;;4983117;28;20073;-67
2023/06/18 03:02:35;;;;;;;328.63;217.03;;;;;;;;;;4998415;28;20038;-66
2023/06/18 03:05:03;;;;;;;444.00;293.70;;;;;;;;;;5014173;28;20304;-66
2023/06/18 03:07:28;;;;;;;440.30;284.73;;;;;;;;;;5013457;28;20719;-67
2023/06/18 03:09:54;;;;;;;439.73;273.47;;;;;;;;;;4988805;28;20410;-66
2023/06/18 03:12:20;;;;;;;444.87;300.23;;;;;;;;;;4981654;28;20144;-66
2023/06/18 03:14:48;;;;;;;331.93;220.50;;;;;;;;;;4982434;28;20692;-66
2023/06/18 03:17:14;;;;;;;440.73;284.63;;;;;;;;;;4982622;28;20427;-67
2023/06/18 03:19:39;;;;;;;329.57;217.27;;;;;;;;;;4981569;28;20633;-64
2023/06/18 03:22:05;;;;;;;443.50;291.30;;;;;;;;;;4983233;28;20476;-66
2023/06/18 03:24:32;;;;;;;440.37;285.20;;;;;;;;;;5013014;28;20026;-66
2023/06/18 03:26:59;;;;;;;443.17;291.50;;;;;;;;;;4983296;28;20400;-68
2023/06/18 03:29:25;;;;;;;442.37;287.47;;;;;;;;;;4970754;28;20292;-64
2023/06/18 03:31:55;;;;;;;447.97;304.27;;;;;;;;;;4969472;28;20797;-65
2023/06/18 03:34:21;;;;;;;446.00;294.17;;;;;;;;;;4976275;28;20333;-65
2023/06/18 03:36:48;;;;;;;446.07;299.17;;;;;;;;;;4970983;28;20285;-65
2023/06/18 03:39:18;;;;;;;445.80;295.10;;;;;;;;;;4971294;28;20823;-65
2023/06/18 03:41:44;;;;;;;446.80;298.80;;;;;;;;;;4981483;28;20445;-65
2023/06/18 03:44:11;;;;;;;472.00;401.33;;;;;;;;;;5011798;28;20864;-64
2023/06/18 03:46:37;;;;;;;447.10;298.37;;;;;;;;;;4987344;28;20285;-65
2023/06/18 03:49:03;;;;;;;449.87;308.20;;;;;;;;;;4978509;28;20060;-65
2023/06/18 03:51:29;;;;;;;445.17;296.97;;;;;;;;;;4971528;28;20050;-65
2023/06/18 03:53:55;;;;;;;334.53;237.80;;;;;;;;;;4979201;28;20316;-64
2023/06/18 03:56:23;;;;;;;447.77;317.27;;;;;;;;;;4987224;28;20380;-64
2023/06/18 03:58:49;;;;;;;450.00;313.63;;;;;;;;;;5011331;28;20473;-65
2023/06/18 04:01:15;;;;;;;445.87;307.70;;;;;;;;;;4979597;28;20266;-65
2023/06/18 04:03:41;;;;;;;448.97;324.43;;;;;;;;;;5014072;28;20172;-64
2023/06/18 04:06:08;;;;;;;378.73;338.87;;;;;;;;;;4988300;28;20054;-65
2023/06/18 04:08:34;;;;;;;450.87;326.23;;;;;;;;;;4979103;28;20736;-65
2023/06/18 04:11:00;;;;;;;337.13;248.17;;;;;;;;;;4979682;28;20474;-65
2023/06/18 04:13:25;;;;;;;338.00;256.13;;;;;;;;;;4981039;28;20277;-64
2023/06/18 04:15:51;;;;;;;452.90;338.30;;;;;;;;;;4961519;28;20482;-64
2023/06/18 04:18:17;;;;;;;336.40;258.23;;;;;;;;;;4979365;28;20282;-64
2023/06/18 04:20:43;;;;;;;337.83;245.17;;;;;;;;;;4980154;28;20038;-64
2023/06/18 04:23:11;;;;;;;457.73;347.97;;;;;;;;;;4986295;28;20077;-64
2023/06/18 04:25:38;;;;;;;450.30;337.37;;;;;;;;;;4971920;28;20289;-64
2023/06/18 04:28:03;;;;;;;450.93;339.13;;;;;;;;;;4981563;28;20351;-64
2023/06/18 04:30:29;;;;;;;455.33;346.20;;;;;;;;;;5012605;28;20117;-64
2023/06/18 04:32:55;;;;;;;458.07;366.00;;;;;;;;;;5013821;28;20137;-64
2023/06/18 04:35:21;;;;;;;337.73;272.53;;;;;;;;;;4981442;28;20030;-64
2023/06/18 04:37:47;;;;;;;456.77;365.93;;;;;;;;;;4979115;28;20648;-65
2023/06/18 04:40:13;;;;;;;456.67;356.20;;;;;;;;;;4985374;28;20513;-64
2023/06/18 04:42:40;;;;;;;456.60;373.73;;;;;;;;;;4971636;28;20281;-65
2023/06/18 04:45:09;;;;;;;459.83;377.10;;;;;;;;;;4979646;28;20365;-64
2023/06/18 04:47:35;;;;;;;461.83;397.07;;;;;;;;;;4987892;28;20294;-65
2023/06/18 04:50:02;;;;;;;339.57;285.67;;;;;;;;;;4970619;28;20037;-65
2023/06/18 04:52:33;;;;;;;460.80;391.83;;;;;;;;;;4971094;28;20510;-65
2023/06/18 04:54:58;;;;;;;460.40;400.47;;;;;;;;;;4983068;28;20276;-65
2023/06/18 04:57:24;;;;;;;460.90;397.10;;;;;;;;;;4981412;28;20396;-63
2023/06/18 04:59:50;;;;;;;464.13;408.57;;;;;;;;;;4988368;28;20153;-64
2023/06/18 05:02:17;;;;;;;468.10;416.43;;;;;;;;;;4982702;28;20827;-65
2023/06/18 05:04:42;;;;;;;464.63;413.07;;;;;;;;;;4983267;28;20057;-65
2023/06/18 05:07:08;;;;;;;476.77;425.07;;;;;;;;;;4983995;28;20636;-63
2023/06/18 05:09:36;;;;;;;480.20;428.07;;;;;;;;;;4971805;28;20038;-63
2023/06/18 05:12:01;;;;;;;482.93;430.97;;;;;;;;;;4972858;28;20316;-64
2023/06/18 05:14:28;;;;;;;478.13;426.30;;;;;;;;;;4964133;28;20068;-65
2023/06/18 05:16:54;;;;;;;491.03;439.20;;;;;;;;;;4988964;28;20384;-64
2023/06/18 05:19:19;;;;;;;513.03;460.47;;;;;;;;;;4980548;28;20109;-67
2023/06/18 05:21:44;;;;;;;494.10;442.10;;;;;;;;;;4980955;28;20641;-64
2023/06/18 05:24:10;;;;;;;502.23;449.33;;;;;;;;;;4970027;28;20169;-66
2023/06/18 05:26:36;;;;;;;498.40;446.03;;;;;;;;;;4969213;28;20490;-66
2023/06/18 05:29:02;;;;;;;510.87;458.47;;;;;;;;;;5011731;28;20030;-67
2023/06/18 05:31:30;;;;;;;505.60;453.50;;;;;;;;;;4970758;28;20059;-64
2023/06/18 05:33:59;;;;;;;513.97;461.37;;;;;;;;;;4971728;28;20469;-63
2023/06/18 05:36:25;;;;;;;516.67;464.17;;;;;;;;;;5012782;28;20300;-65
2023/06/18 05:38:52;;;;;;;507.03;454.67;;;;;;;;;;4979089;28;20038;-65
2023/06/18 05:41:18;;;;;;;516.90;464.53;;;;;;;;;;4964072;28;20479;-65
2023/06/18 05:43:44;;;;;;;513.63;460.63;;;;;;;;;;4980750;28;20772;-65
2023/06/18 05:46:10;;;;;;;517.17;464.53;;;;;;;;;;4979203;28;20336;-65
2023/06/18 05:48:36;;;;;;;524.27;471.60;;;;;;;;;;4978402;28;20089;-65
2023/06/18 05:51:08;;;;;;;510.73;458.37;;;;;;;;;;4986875;28;20461;-65
2023/06/18 05:53:33;;;;;;;529.67;476.63;;;;;;;;;;4973325;28;20359;-66
2023/06/18 05:55:59;;;;;;;530.53;477.37;;;;;;;;;;4974469;28;20488;-65
2023/06/18 05:58:25;;;;;;;553.43;499.83;;;;;;;;;;4966605;28;20462;-65
2023/06/18 06:00:51;;;;;;;543.47;489.90;;;;;;;;;;5015584;28;20291;-64
2023/06/18 06:03:17;;;;;;;541.30;487.93;;;;;;;;;;5016266;28;20269;-65
2023/06/18 06:05:42;;;;;;;541.73;488.23;;;;;;;;;;5014838;28;21087;-65
2023/06/18 06:08:10;;;;;;;547.90;494.13;;;;;;;;;;4983864;28;20101;-65
2023/06/18 06:10:37;;;;;;;551.83;498.00;;;;;;;;;;4973174;28;20525;-65
2023/06/18 06:13:03;;;;;;;552.63;499.10;;;;;;;;;;4980649;28;20834;-65
2023/06/18 06:15:29;;;;;;;558.37;504.90;;;;;;;;;;4971793;28;20038;-65
2023/06/18 06:17:55;;;;;;;577.10;523.03;;;;;;;;;;4971321;28;20300;-66
2023/06/18 06:20:20;;;;;;;565.30;511.43;;;;;;;;;;4982038;28;20277;-66
2023/06/18 06:22:46;;;;;;;588.17;533.57;;;;;;;;;;4972392;28;20050;-65
2023/06/18 06:25:12;;;;;;;600.90;546.00;;;;;;;;;;4980897;28;20038;-66
2023/06/18 06:27:38;;;;;;;608.87;554.20;;;;;;;;;;4983933;28;20038;-65
2023/06/18 06:30:04;;;;;;;619.67;564.87;;;;;;;;;;4983130;28;20066;-65
2023/06/18 06:32:29;;;;;;;624.10;569.33;;;;;;;;;;4983464;28;20504;-65
2023/06/18 06:34:55;;;;;;;628.67;573.63;;;;;;;;;;4982675;28;20282;-64
2023/06/18 06:37:20;;;;;;;620.50;565.73;;;;;;;;;;4983062;28;20108;-65
2023/06/18 06:39:48;;;;;;;646.13;590.50;;;;;;;;;;4997160;28;20690;-60
2023/06/18 06:42:14;;;;;;;632.70;577.50;;;;;;;;;;4997132;28;20042;-60
2023/06/18 06:44:40;;;;;;;656.80;600.67;;;;;;;;;;4979749;28;20039;-60
2023/06/18 06:47:24;;;;;;;640.90;585.83;;;;;;;;;;4982837;28;20052;-61
2023/06/18 06:50:08;;;;;;;652.70;597.25;;;;;;;;;;4974737;28;20493;-60
2023/06/18 06:52:57;;;;;;;661.37;605.70;;;;;;;;;;4983793;28;20069;-61
2023/06/18 06:55:22;;;;;;;654.77;599.17;;;;;;;;;;4983792;28;20548;-60
2023/06/18 06:57:47;;;;;;;673.03;617.07;;;;;;;;;;4972378;28;20034;-60
2023/06/18 07:00:14;;;;;;;671.70;615.83;;;;;;;;;;4973166;28;20170;-61
2023/06/18 07:02:42;;;;;;;676.30;620.43;;;;;;;;;;4990017;28;20030;-61
2023/06/18 07:05:09;;;;;;;698.93;642.50;;;;;;;;;;4982141;28;20457;-61
2023/06/18 07:07:35;;;;;;;694.57;638.13;;;;;;;;;;4982204;28;20058;-61
2023/06/18 07:10:01;;;;;;;696.20;640.17;;;;;;;;;;4982401;28;20120;-61
2023/06/18 07:12:27;;;;;;;698.00;641.30;;;;;;;;;;4981559;28;20156;-61
2023/06/18 07:14:52;;;;;;;716.77;659.87;;;;;;;;;;4981986;28;20073;-61
2023/06/18 07:17:18;;;;;;;710.67;654.10;;;;;;;;;;4982725;28;20034;-60
2023/06/18 07:19:43;;;;;;;720.97;664.20;;;;;;;;;;4982485;28;20432;-60
2023/06/18 07:22:09;;;;;;;709.63;653.40;;;;;;;;;;4981764;28;20606;-61
2023/06/18 07:24:34;;;;;;;707.23;650.80;;;;;;;;;;4983453;28;20029;-60
2023/06/18 07:27:00;;;;;;;725.07;668.07;;;;;;;;;;4982520;28;20493;-61
2023/06/18 07:29:25;;;;;;;712.43;656.03;;;;;;;;;;4981562;28;20046;-60
2023/06/18 07:31:51;;;;;;;704.33;648.50;;;;;;;;;;4980875;28;20141;-60
2023/06/18 07:34:17;;;;;;;729.50;672.77;;;;;;;;;;4983024;28;20569;-60
2023/06/18 07:36:42;;;;;;;732.20;675.33;;;;;;;;;;4982942;28;20122;-60
2023/06/18 07:39:08;;;;;;;728.77;671.83;;;;;;;;;;4980985;28;20513;-61
2023/06/18 07:41:34;;;;;;;743.10;685.73;;;;;;;;;;4982104;28;20485;-60
2023/06/18 07:44:00;;;;;;;740.23;683.30;;;;;;;;;;4983015;28;20042;-60
2023/06/18 07:46:26;;;;;;;745.80;688.97;;;;;;;;;;4981853;28;20463;-60
2023/06/18 07:48:51;;;;;;;763.70;706.33;;;;;;;;;;4979838;28;20057;-60
2023/06/18 07:51:16;;;;;;;760.77;703.13;;;;;;;;;;4981364;28;20046;-60
2023/06/18 07:53:42;;;;;;;762.57;705.37;;;;;;;;;;4982351;28;20072;-60
2023/06/18 07:56:07;;;;;;;776.63;718.53;;;;;;;;;;4981433;28;20038;-60
2023/06/18 07:58:33;;;;;;;764.20;706.73;;;;;;;;;;4982979;28;20071;-60
2023/06/18 08:00:59;;;;;;;788.90;730.73;;;;;;;;;;4981412;28;20564;-60
2023/06/18 08:03:24;;;;;;;779.10;721.13;;;;;;;;;;4982344;28;20515;-61
2023/06/18 08:05:50;;;;;;;783.97;725.87;;;;;;;;;;4971560;28;20054;-60
2023/06/18 08:08:15;;;;;;;782.53;724.93;;;;;;;;;;4981582;28;20046;-61
2023/06/18 08:10:41;;;;;;;781.57;723.90;;;;;;;;;;4981610;28;20407;-61
2023/06/18 08:13:06;;;;;;;781.93;724.13;;;;;;;;;;4981552;28;20584;-60
2023/06/18 08:15:32;;;;;;;809.50;750.73;;;;;;;;;;4980582;28;20436;-64
2023/06/18 08:17:57;;;;;;;796.40;738.23;;;;;;;;;;4969675;28;20042;-60
2023/06/18 08:20:23;;;;;;;805.20;746.97;;;;;;;;;;4981428;28;21168;-61
2023/06/18 08:22:48;;;;;;;819.37;760.50;;;;;;;;;;4978421;28;20541;-62
2023/06/18 08:25:14;;;;;;;819.33;760.53;;;;;;;;;;4979323;28;20227;-61
2023/06/18 08:27:40;;;;;;;801.70;743.73;;;;;;;;;;4982767;28;20022;-61
2023/06/18 08:30:06;;;;;;;810.53;752.23;;;;;;;;;;4983505;28;20045;-61
2023/06/18 08:32:31;;;;;;;812.00;753.33;;;;;;;;;;4981132;28;20046;-60
2023/06/18 08:34:57;;;;;;;817.80;759.27;;;;;;;;;;4981664;28;20030;-60
2023/06/18 08:37:23;;;;;;;812.77;754.17;;;;;;;;;;4981519;28;20042;-61
2023/06/18 08:39:48;;;;;;;818.90;760.23;;;;;;;;;;4981911;28;20061;-61
2023/06/18 08:42:20;;;;;;;823.17;764.50;;;;;;;;;;4980998;28;20509;-62
2023/06/18 08:44:46;;;;;;;827.47;768.60;;;;;;;;;;4980757;28;20038;-62
2023/06/18 08:47:11;;;;;;;823.07;764.60;;;;;;;;;;4980305;28;20516;-61
2023/06/18 08:49:40;;;;;;;825.43;766.63;;;;;;;;;;4970608;28;20034;-61
2023/06/18 08:52:07;;;;;;;828.57;769.53;;;;;;;;;;4980199;28;20045;-61
2023/06/18 08:54:33;;;;;;;832.03;773.00;;;;;;;;;;4979821;28;20200;-60
2023/06/18 08:57:34;;;;;;;839.53;780.50;;;;;;;;;;4980952;28;20038;-60
2023/06/18 09:00:00;;;;;;;846.83;787.17;;;;;;;;;;4918510;29;20580;-61
2023/06/18 09:02:26;;;;;;;837.90;778.73;;;;;;;;;;4918577;29;20055;-62
2023/06/18 09:04:53;;;;;;;842.40;783.47;;;;;;;;;;4920077;29;20545;-60
2023/06/18 09:07:20;;;;;;;857.20;797.53;;;;;;;;;;4919114;29;20409;-60
2023/06/18 09:09:45;;;;;;;848.77;789.37;;;;;;;;;;4918384;29;20047;-61
2023/06/18 09:12:11;;;;;;;855.83;796.37;;;;;;;;;;4903713;29;20045;-62
2023/06/18 09:14:36;;;;;;;849.17;789.50;;;;;;;;;;4918023;29;20050;-61
2023/06/18 09:17:02;;;;;;;613.90;570.63;;;;;;;;;;4918934;29;20035;-61
2023/06/18 09:19:27;;;;;;;838.30;779.10;;;;;;;;;;4901817;29;20044;-62
2023/06/18 09:21:53;;;;;;;841.77;782.50;;;;;;;;;;4918470;29;20074;-61
2023/06/18 09:24:19;;;;;;;840.07;780.67;;;;;;;;;;4918730;29;20044;-61
2023/06/18 09:26:45;;;;;;;846.67;787.33;;;;;;;;;;4918456;29;20440;-61
2023/06/18 09:29:11;;;;;;;846.87;787.53;;;;;;;;;;4917662;29;20043;-60
2023/06/18 09:31:37;;;;;;;836.70;777.17;;;;;;;;;;4917132;29;20048;-60
2023/06/18 09:34:13;;;;;;;854.43;794.73;;;;;;;;;;4954731;28;20043;-61
2023/06/18 09:36:39;;;;;;;845.93;786.60;;;;;;;;;;4979849;28;20639;-61
2023/06/18 09:39:13;;;;;;;843.97;784.47;;;;;;;;;;4970616;28;20140;-61
2023/06/18 09:41:39;;;;;;;845.33;785.95;;;;;;;;;;4975015;28;20743;-61
2023/06/18 09:44:07;;;;;;;847.30;787.87;;;;;;;;;;4978831;28;20034;-61
2023/06/18 09:46:32;;;;;;;866.53;806.33;;;;;;;;;;4969312;28;20132;-61
2023/06/18 09:48:57;;;;;;;851.77;791.53;;;;;;;;;;4979730;28;20273;-61
2023/06/18 09:51:24;;;;;;;874.13;812.83;;;;;;;;;;4977872;28;20070;-62
2023/06/18 09:53:55;;;;;;;853.10;793.63;;;;;;;;;;4977613;28;20513;-61
2023/06/18 09:56:20;;;;;;;871.87;811.40;;;;;;;;;;4978467;28;20637;-61
2023/06/18 09:58:47;;;;;;;866.33;806.10;;;;;;;;;;4979084;28;20122;-61
2023/06/18 10:01:12;;;;;;;877.63;817.43;;;;;;;;;;4978854;28;20816;-61
2023/06/18 10:03:39;;;;;;;882.20;820.93;;;;;;;;;;4978364;28;20500;-61
2023/06/18 10:06:18;;;;;;;878.03;817.97;;;;;;;;;;4980361;28;20566;-61
2023/06/18 10:08:44;;;;;;;876.97;816.67;;;;;;;;;;4977546;28;20058;-61
2023/06/18 10:11:10;;;;;;;890.23;829.43;;;;;;;;;;4978977;28;20125;-61
2023/06/18 10:13:58;;;;;;;873.80;813.73;;;;;;;;;;4979533;28;20052;-62
2023/06/18 10:16:26;;;;;;;868.80;808.57;;;;;;;;;;4979124;28;20042;-62
2023/06/18 10:18:58;;;;;;;900.87;839.67;;;;;;;;;;4979544;28;20030;-60
2023/06/18 10:21:24;;;;;;;910.30;849.40;;;;;;;;;;4980245;28;20043;-61
2023/06/18 10:23:55;;;;;;;903.50;842.53;;;;;;;;;;4979661;28;20038;-61
2023/06/18 10:26:20;;;;;;;905.20;844.50;;;;;;;;;;4979769;28;20122;-61
2023/06/18 10:28:46;;;;;;;901.67;840.83;;;;;;;;;;4979999;28;20038;-61
2023/06/18 10:31:12;;;;;;;904.13;842.87;;;;;;;;;;4979640;28;20116;-60
2023/06/18 10:33:37;;;;;;;899.33;838.37;;;;;;;;;;4979075;28;20255;-60
2023/06/18 10:36:03;;;;;;;909.37;848.37;;;;;;;;;;4978042;28;20981;-61
2023/06/18 10:38:29;;;;;;;910.17;848.93;;;;;;;;;;4978845;28;20034;-61
2023/06/18 10:41:05;;;;;;;901.17;840.57;;;;;;;;;;4983667;28;20034;-61
2023/06/18 10:43:30;;;;;;;909.50;848.27;;;;;;;;;;4982359;28;20042;-61
2023/06/18 10:46:12;;;;;;;905.40;844.20;;;;;;;;;;4982805;28;20483;-61
2023/06/18 10:48:37;;;;;;;902.20;841.57;;;;;;;;;;4983303;28;20062;-61
2023/06/18 10:51:16;;;;;;;908.77;847.77;;;;;;;;;;4983211;28;20764;-63
2023/06/18 10:53:45;;;;;;;920.47;858.83;;;;;;;;;;4983206;28;20038;-60
2023/06/18 10:56:11;;;;;;;913.93;852.80;;;;;;;;;;4980293;28;20133;-60
2023/06/18 10:58:39;;;;;;;932.40;870.70;;;;;;;;;;4983876;28;20125;-60
2023/06/18 11:01:05;;;;;;;933.93;871.77;;;;;;;;;;4982629;28;20101;-60
2023/06/18 11:03:37;;;;;;;940.97;879.20;;;;;;;;;;4983404;28;20401;-61
2023/06/18 11:06:03;;;;;;;925.30;863.80;;;;;;;;;;4982235;28;20149;-60
2023/06/18 11:08:30;;;;;;;950.43;888.00;;;;;;;;;;4983122;28;20057;-60
2023/06/18 11:11:03;;;;;;;929.90;868.03;;;;;;;;;;4982492;28;20030;-61
2023/06/18 11:13:32;;;;;;;921.03;859.40;;;;;;;;;;4981784;28;20042;-60
2023/06/18 11:16:10;;;;;;;929.27;867.40;;;;;;;;;;4981667;28;20626;-60
2023/06/18 11:18:35;;;;;;;907.10;845.97;;;;;;;;;;4973457;28;20219;-60
2023/06/18 11:21:04;;;;;;;908.17;847.30;;;;;;;;;;4982177;28;20034;-60
2023/06/18 11:23:31;;;;;;;923.23;861.63;;;;;;;;;;4982232;28;20153;-60
2023/06/18 11:25:57;;;;;;;918.40;857.00;;;;;;;;;;4981886;28;20034;-60
2023/06/18 11:28:24;;;;;;;917.63;856.53;;;;;;;;;;5014006;28;20148;-62
2023/06/18 11:30:51;;;;;;;933.80;872.07;;;;;;;;;;4979642;28;20034;-59
2023/06/18 11:33:21;;;;;;;923.63;861.80;;;;;;;;;;4982296;28;20070;-60
2023/06/18 11:35:46;;;;;;;917.10;855.83;;;;;;;;;;4981782;28;20123;-59
2023/06/18 11:38:12;;;;;;;926.47;865.03;;;;;;;;;;4971678;28;20427;-61
2023/06/18 11:40:54;;;;;;;925.60;864.00;;;;;;;;;;4971989;28;20065;-61
2023/06/18 11:43:20;;;;;;;932.30;870.37;;;;;;;;;;4981705;28;20518;-60
2023/06/18 11:45:47;;;;;;;921.40;860.03;;;;;;;;;;4981559;28;20081;-61
2023/06/18 11:48:13;;;;;;;922.33;861.30;;;;;;;;;;4982430;28;20122;-62
2023/06/18 11:50:38;;;;;;;933.50;871.57;;;;;;;;;;4979880;28;20038;-61
2023/06/18 11:53:05;;;;;;;931.00;869.30;;;;;;;;;;4982704;28;20050;-60
2023/06/18 11:55:32;;;;;;;940.60;878.57;;;;;;;;;;4981034;28;20114;-60
2023/06/18 11:58:00;;;;;;;936.30;874.80;;;;;;;;;;4982278;28;20038;-62
2023/06/18 12:00:26;;;;;;;936.73;874.97;;;;;;;;;;4981875;28;20038;-60
2023/06/18 12:02:51;;;;;;;937.30;875.30;;;;;;;;;;4980944;28;20114;-61
2023/06/18 12:05:16;;;;;;;946.80;883.87;;;;;;;;;;5006222;28;20533;-60
2023/06/18 12:07:44;;;;;;;942.93;880.20;;;;;;;;;;4979650;28;20450;-61
2023/06/18 12:10:10;;;;;;;934.00;872.37;;;;;;;;;;4981801;28;20255;-60
2023/06/18 12:12:35;;;;;;;953.00;890.70;;;;;;;;;;4980882;28;20053;-60
2023/06/18 12:15:27;;;;;;;935.70;873.53;;;;;;;;;;4981345;28;20022;-60
2023/06/18 12:17:58;;;;;;;932.17;870.60;;;;;;;;;;4940668;29;20043;-59
2023/06/18 12:20:24;;;;;;;954.73;892.07;;;;;;;;;;4940911;29;20047;-59
2023/06/18 12:22:50;;;;;;;946.47;884.27;;;;;;;;;;4940543;29;20221;-60
2023/06/18 12:25:16;;;;;;;958.57;894.63;;;;;;;;;;4940862;29;20126;-62
2023/06/18 12:27:42;;;;;;;950.47;887.10;;;;;;;;;;4940437;29;20598;-61
2023/06/18 12:30:08;;;;;;;960.77;897.90;;;;;;;;;;4940447;29;20146;-61
2023/06/18 12:32:37;;;;;;;940.57;878.37;;;;;;;;;;4940858;29;20058;-68
2023/06/18 12:35:13;;;;;;;953.47;890.27;;;;;;;;;;4940725;29;20585;-59
2023/06/18 12:37:41;;;;;;;958.40;895.70;;;;;;;;;;4938438;29;20240;-61
2023/06/18 12:40:09;;;;;;;955.53;892.87;;;;;;;;;;4940602;29;20046;-62
2023/06/18 12:42:34;;;;;;;966.40;903.83;;;;;;;;;;4940933;29;20481;-62
2023/06/18 12:45:00;;;;;;;968.03;905.57;;;;;;;;;;4923778;29;20043;-61
2023/06/18 12:47:25;;;;;;;980.60;917.50;;;;;;;;;;4940016;29;20043;-60
2023/06/18 12:49:51;;;;;;;981.57;918.60;;;;;;;;;;4940317;29;20486;-59
2023/06/18 12:52:17;;;;;;;991.70;927.70;;;;;;;;;;4921957;29;20082;-60
2023/06/18 12:54:44;;;;;;;983.93;920.87;;;;;;;;;;4948369;28;20077;-59
2023/06/18 12:57:12;;;;;;;984.37;921.17;;;;;;;;;;4980775;28;21068;-61
2023/06/18 12:59:37;;;;;;;978.27;915.17;;;;;;;;;;4979866;28;20486;-59
2023/06/18 13:02:03;;;;;;;980.50;917.33;;;;;;;;;;4981296;28;20046;-60
2023/06/18 13:04:28;;;;;;;980.23;916.93;;;;;;;;;;5011646;28;20153;-59
2023/06/18 13:06:54;;;;;;;978.57;915.40;;;;;;;;;;4980209;28;20367;-60
2023/06/18 13:09:21;;;;;;;978.27;915.00;;;;;;;;;;4980103;28;20037;-60
2023/06/18 13:11:47;;;;;;;985.23;921.67;;;;;;;;;;4980521;28;20034;-60
2023/06/18 13:14:12;;;;;;;973.57;910.53;;;;;;;;;;5011500;28;20045;-59
2023/06/18 13:16:38;;;;;;;984.07;920.60;;;;;;;;;;4977232;28;20074;-59
2023/06/18 13:19:04;;;;;;;964.53;901.87;;;;;;;;;;4979888;28;20061;-62
2023/06/18 13:21:30;;;;;;;974.00;910.87;;;;;;;;;;4980490;28;20805;-63
2023/06/18 13:23:56;;;;;;;963.23;900.73;;;;;;;;;;4980932;28;20030;-61
2023/06/18 13:26:21;;;;;;;980.20;917.17;;;;;;;;;;4979029;28;20113;-60
2023/06/18 13:28:47;;;;;;;972.50;909.47;;;;;;;;;;4980109;28;20115;-60
2023/06/18 13:31:12;;;;;;;970.40;907.57;;;;;;;;;;4978118;28;20537;-61
2023/06/18 13:33:38;;;;;;;962.77;900.17;;;;;;;;;;4980401;28;20481;-61
2023/06/18 13:36:04;;;;;;;970.60;908.17;;;;;;;;;;4980103;28;20117;-60
2023/06/18 13:38:29;;;;;;;984.43;921.13;;;;;;;;;;4980450;28;20431;-61
2023/06/18 13:40:55;;;;;;;986.67;923.23;;;;;;;;;;4979656;28;20065;-65
2023/06/18 13:43:21;;;;;;;980.60;917.70;;;;;;;;;;4980413;28;20133;-61
2023/06/18 13:45:47;;;;;;;992.97;929.30;;;;;;;;;;4995155;28;20611;-61
2023/06/18 13:48:12;;;;;;;999.30;935.53;;;;;;;;;;4981041;28;20049;-61
2023/06/18 13:50:38;;;;;;;1019.67;952.93;;;;;;;;;;4979619;28;20049;-61